createdAt,value
2022-12-29T00:02:22.334Z,10.80
2022-12-29T00:05:06.819Z,10.80
2022-12-29T00:07:48.098Z,10.80
2022-12-29T00:15:14.551Z,10.70
2022-12-29T00:18:19.071Z,10.70
2022-12-29T00:21:44.060Z,10.70
2022-12-29T00:24:47.395Z,10.80
2022-12-29T00:27:48.924Z,10.90
2022-12-29T00:30:42.874Z,11.00
2022-12-29T00:33:35.060Z,11.10
2022-12-29T00:36:29.619Z,11.30
2022-12-29T00:39:29.665Z,11.30
2022-12-29T00:42:38.102Z,11.20
2022-12-29T00:45:10.846Z,11.30
2022-12-29T00:47:41.875Z,11.20
2022-12-29T00:50:18.703Z,11.20
2022-12-29T00:52:53.738Z,11.10
2022-12-29T00:55:34.905Z,11.00
2022-12-29T00:58:05.886Z,10.90
2022-12-29T01:00:38.627Z,10.90
2022-12-29T01:03:11.512Z,10.90
2022-12-29T01:05:40.501Z,10.90
2022-12-29T01:08:10.674Z,11.00
2022-12-29T01:10:44.557Z,11.10
2022-12-29T01:13:19.005Z,11.20
2022-12-29T01:15:58.644Z,11.40
2022-12-29T01:18:32.577Z,11.50
2022-12-29T01:21:06.807Z,11.50
2022-12-29T01:23:39.739Z,11.60
2022-12-29T01:26:17.754Z,11.70
2022-12-29T01:28:53.055Z,11.80
2022-12-29T01:31:24.323Z,11.90
2022-12-29T01:33:57.387Z,11.90
2022-12-29T01:36:29.419Z,12.00
2022-12-29T01:39:02.087Z,12.00
2022-12-29T01:41:31.147Z,12.00
2022-12-29T01:44:03.070Z,12.10
2022-12-29T01:46:35.838Z,12.10
2022-12-29T01:49:13.712Z,12.10
2022-12-29T01:51:49.413Z,12.10
2022-12-29T01:54:26.458Z,12.10
2022-12-29T01:57:00.414Z,12.10
2022-12-29T01:59:34.639Z,12.10
2022-12-29T02:02:04.993Z,12.00
2022-12-29T02:04:38.236Z,11.90
2022-12-29T02:07:11.734Z,11.90
2022-12-29T02:09:41.267Z,11.90
2022-12-29T02:12:13.440Z,12.00
2022-12-29T02:14:49.096Z,12.00
2022-12-29T02:17:28.015Z,12.10
2022-12-29T02:20:25.711Z,12.00
2022-12-29T02:23:09.994Z,12.10
2022-12-29T02:26:01.680Z,12.00
2022-12-29T02:29:03.879Z,12.10
2022-12-29T02:31:43.439Z,12.10
2022-12-29T02:34:24.053Z,12.10
2022-12-29T02:37:07.199Z,12.10
2022-12-29T02:39:47.623Z,12.10
2022-12-29T02:42:26.504Z,12.10
2022-12-29T02:45:04.458Z,12.00
2022-12-29T02:47:43.272Z,12.00
2022-12-29T02:50:21.497Z,11.90
2022-12-29T02:52:55.254Z,12.00
2022-12-29T02:55:26.038Z,12.10
2022-12-29T02:58:31.432Z,12.10
2022-12-29T03:01:25.017Z,12.10
2022-12-29T03:04:13.496Z,12.10
2022-12-29T03:06:55.948Z,12.20
2022-12-29T03:09:38.683Z,12.20
2022-12-29T03:12:18.112Z,12.20
2022-12-29T03:15:15.457Z,12.20
2022-12-29T03:17:55.782Z,12.20
2022-12-29T03:20:33.768Z,12.20
2022-12-29T03:23:08.113Z,12.20
2022-12-29T03:25:42.988Z,12.20
2022-12-29T03:28:22.066Z,12.30
2022-12-29T03:30:52.750Z,12.30
2022-12-29T03:33:28.470Z,12.30
2022-12-29T03:36:04.953Z,12.40
2022-12-29T03:38:41.391Z,12.30
2022-12-29T03:41:15.405Z,12.20
2022-12-29T03:43:46.383Z,12.20
2022-12-29T03:46:18.791Z,12.20
2022-12-29T03:48:49.537Z,12.20
2022-12-29T03:51:22.983Z,12.20
2022-12-29T03:53:55.588Z,12.30
2022-12-29T03:56:25.027Z,12.30
2022-12-29T04:05:58.769Z,12.30
2022-12-29T04:11:59.137Z,12.40
2022-12-29T04:14:36.640Z,12.40
2022-12-29T04:22:30.397Z,12.50
2022-12-29T04:25:40.585Z,12.50
2022-12-29T04:28:26.365Z,12.50
2022-12-29T04:38:17.788Z,12.70
2022-12-29T05:05:33.230Z,12.60
2022-12-29T05:08:03.905Z,12.60
2022-12-29T05:10:33.829Z,12.60
2022-12-29T05:13:07.009Z,12.50
2022-12-29T05:15:37.137Z,12.50
2022-12-29T05:18:06.413Z,12.50
2022-12-29T05:20:39.250Z,12.40
2022-12-29T05:23:08.239Z,12.50
2022-12-29T05:25:37.311Z,12.50
2022-12-29T05:28:29.388Z,12.60
2022-12-29T05:31:07.921Z,12.50
2022-12-29T05:33:37.142Z,12.50
2022-12-29T05:36:09.709Z,12.30
2022-12-29T05:38:44.920Z,12.10
2022-12-29T05:41:15.903Z,11.80
2022-12-29T05:44:11.132Z,11.60
2022-12-29T05:47:02.489Z,11.40
2022-12-29T05:50:07.149Z,11.20
2022-12-29T05:52:55.708Z,11.10
2022-12-29T05:55:26.506Z,11.00
2022-12-29T05:57:58.574Z,10.90
2022-12-29T06:00:27.428Z,10.90
2022-12-29T06:02:56.354Z,10.90
2022-12-29T06:05:25.437Z,10.90
2022-12-29T06:07:55.853Z,10.80
2022-12-29T06:10:25.586Z,10.70
2022-12-29T06:13:10.782Z,10.70
2022-12-29T06:15:43.779Z,10.80
2022-12-29T06:18:19.549Z,10.80
2022-12-29T06:20:50.205Z,10.80
2022-12-29T06:23:23.631Z,11.00
2022-12-29T06:25:52.759Z,11.10
2022-12-29T06:28:22.478Z,11.20
2022-12-29T06:30:52.252Z,11.40
2022-12-29T06:33:22.295Z,11.60
2022-12-29T06:35:51.879Z,11.70
2022-12-29T06:38:22.873Z,11.80
2022-12-29T06:40:51.987Z,12.00
2022-12-29T06:43:39.548Z,12.00
2022-12-29T06:46:19.286Z,12.00
2022-12-29T06:48:50.150Z,12.00
2022-12-29T06:51:19.597Z,12.00
2022-12-29T06:53:50.804Z,12.00
2022-12-29T06:56:21.463Z,12.00
2022-12-29T06:58:52.266Z,12.00
2022-12-29T07:01:22.492Z,11.90
2022-12-29T07:03:52.108Z,11.90
2022-12-29T07:06:26.124Z,12.00
2022-12-29T07:08:59.606Z,12.00
2022-12-29T07:11:30.838Z,12.00
2022-12-29T07:14:02.572Z,12.00
2022-12-29T07:16:32.745Z,12.00
2022-12-29T07:19:06.459Z,12.00
2022-12-29T07:21:39.023Z,12.00
2022-12-29T07:24:12.536Z,12.10
2022-12-29T07:26:44.849Z,12.10
2022-12-29T07:29:18.691Z,12.10
2022-12-29T07:31:48.536Z,12.10
2022-12-29T07:34:21.897Z,12.00
2022-12-29T07:36:58.429Z,12.00
2022-12-29T07:39:30.405Z,12.00
2022-12-29T07:42:04.581Z,12.00
2022-12-29T07:44:42.516Z,12.00
2022-12-29T07:47:30.523Z,12.00
2022-12-29T07:50:00.072Z,11.90
2022-12-29T07:52:30.070Z,11.90
2022-12-29T07:55:00.241Z,11.90
2022-12-29T07:57:32.169Z,11.80
2022-12-29T08:00:01.789Z,11.80
2022-12-29T08:02:41.356Z,11.80
2022-12-29T08:05:10.696Z,11.80
2022-12-29T08:07:39.514Z,11.80
2022-12-29T08:10:10.809Z,11.80
2022-12-29T08:12:41.650Z,11.80
2022-12-29T08:15:13.219Z,11.70
2022-12-29T08:17:42.251Z,11.70
2022-12-29T08:20:12.547Z,11.70
2022-12-29T08:22:41.581Z,11.80
2022-12-29T08:25:12.045Z,11.80
2022-12-29T08:27:40.829Z,11.80
2022-12-29T08:30:11.925Z,11.80
2022-12-29T08:32:41.413Z,11.80
2022-12-29T08:35:11.317Z,11.80
2022-12-29T08:37:40.344Z,11.80
2022-12-29T08:40:12.232Z,11.90
2022-12-29T08:42:41.324Z,11.80
2022-12-29T08:45:11.364Z,11.50
2022-12-29T08:47:40.494Z,11.30
2022-12-29T08:50:10.020Z,11.10
2022-12-29T08:52:41.830Z,11.10
2022-12-29T08:55:12.631Z,11.10
2022-12-29T08:57:42.571Z,11.10
2022-12-29T09:00:25.917Z,11.10
2022-12-29T09:02:55.838Z,11.10
2022-12-29T09:05:24.870Z,11.20
2022-12-29T09:07:53.972Z,11.40
2022-12-29T09:10:24.679Z,11.40
2022-12-29T09:12:53.596Z,11.70
2022-12-29T09:15:22.373Z,11.80
2022-12-29T09:17:51.902Z,11.90
2022-12-29T09:20:22.540Z,12.00
2022-12-29T09:22:51.836Z,12.10
2022-12-29T09:25:21.020Z,12.10
2022-12-29T09:27:53.547Z,12.10
2022-12-29T09:30:24.291Z,12.10
2022-12-29T09:32:55.312Z,12.10
2022-12-29T09:35:24.672Z,12.10
2022-12-29T09:37:56.313Z,12.10
2022-12-29T09:40:31.215Z,12.10
2022-12-29T09:43:31.754Z,12.10
2022-12-29T09:46:14.197Z,12.10
2022-12-29T09:48:47.645Z,12.10
2022-12-29T09:51:20.072Z,12.10
2022-12-29T09:53:56.967Z,12.10
2022-12-29T09:56:27.714Z,12.10
2022-12-29T09:59:02.671Z,12.20
2022-12-29T10:01:35.338Z,12.10
2022-12-29T10:04:06.269Z,12.20
2022-12-29T10:06:56.423Z,12.20
2022-12-29T10:09:36.842Z,12.20
2022-12-29T10:12:14.317Z,12.20
2022-12-29T10:14:58.540Z,12.20
2022-12-29T10:17:34.512Z,12.20
2022-12-29T10:20:18.129Z,12.30
2022-12-29T10:23:06.859Z,12.40
2022-12-29T10:25:40.018Z,12.40
2022-12-29T10:28:17.360Z,12.40
2022-12-29T10:30:49.850Z,12.50
2022-12-29T10:33:22.564Z,12.50
2022-12-29T10:35:52.913Z,12.50
2022-12-29T10:38:28.889Z,12.40
2022-12-29T10:41:02.899Z,12.50
2022-12-29T10:43:41.101Z,12.40
2022-12-29T10:46:15.227Z,12.40
2022-12-29T10:48:46.449Z,12.40
2022-12-29T10:51:23.943Z,12.40
2022-12-29T10:53:56.582Z,12.40
2022-12-29T10:56:35.410Z,12.40
2022-12-29T10:59:10.739Z,12.50
2022-12-29T11:01:51.532Z,12.40
2022-12-29T11:04:35.929Z,12.40
2022-12-29T11:07:10.559Z,12.40
2022-12-29T11:09:43.593Z,12.50
2022-12-29T11:12:27.769Z,12.50
2022-12-29T11:15:13.455Z,12.50
2022-12-29T11:17:51.716Z,12.40
2022-12-29T11:20:33.174Z,12.40
2022-12-29T11:23:02.654Z,12.40
2022-12-29T11:25:31.597Z,12.40
2022-12-29T11:28:02.952Z,12.40
2022-12-29T11:30:42.987Z,12.50
2022-12-29T11:33:13.177Z,12.50
2022-12-29T11:35:44.550Z,12.50
2022-12-29T11:38:23.038Z,12.50
2022-12-29T11:40:51.971Z,12.50
2022-12-29T11:43:26.054Z,12.60
2022-12-29T11:45:57.761Z,12.70
2022-12-29T11:48:32.469Z,12.60
2022-12-29T11:51:02.291Z,12.60
2022-12-29T11:53:38.509Z,12.70
2022-12-29T11:56:10.646Z,12.60
2022-12-29T11:58:40.622Z,12.60
2022-12-29T12:01:16.440Z,12.60
2022-12-29T12:03:50.666Z,12.80
2022-12-29T12:06:25.265Z,12.80
2022-12-29T12:08:57.932Z,12.80
2022-12-29T12:11:37.060Z,12.60
2022-12-29T12:14:14.307Z,12.60
2022-12-29T12:17:08.303Z,12.50
2022-12-29T12:19:48.695Z,12.50
2022-12-29T12:22:24.995Z,12.50
2022-12-29T12:25:01.043Z,12.50
2022-12-29T12:27:37.273Z,12.50
2022-12-29T12:30:08.585Z,12.40
2022-12-29T12:32:46.586Z,12.40
2022-12-29T12:35:23.432Z,12.40
2022-12-29T12:38:07.410Z,12.30
2022-12-29T12:40:58.887Z,12.30
2022-12-29T12:43:42.114Z,12.30
2022-12-29T12:46:40.564Z,12.30
2022-12-29T12:49:37.392Z,12.40
2022-12-29T12:52:16.568Z,12.40
2022-12-29T12:55:03.293Z,12.30
2022-12-29T12:57:41.699Z,12.30
2022-12-29T13:00:13.810Z,12.30
2022-12-29T13:03:03.074Z,12.20
2022-12-29T13:05:50.152Z,12.30
2022-12-29T13:08:51.604Z,12.30
2022-12-29T13:11:26.519Z,12.30
2022-12-29T13:14:16.174Z,12.30
2022-12-29T13:16:50.767Z,12.30
2022-12-29T13:19:27.858Z,12.30
2022-12-29T13:22:08.279Z,12.20
2022-12-29T13:24:50.100Z,12.20
2022-12-29T13:27:25.215Z,12.20
2022-12-29T13:30:02.554Z,12.10
2022-12-29T13:32:42.845Z,12.10
2022-12-29T13:35:31.667Z,12.10
2022-12-29T13:38:06.078Z,12.00
2022-12-29T13:40:42.397Z,12.00
2022-12-29T13:43:11.738Z,11.90
2022-12-29T13:45:40.955Z,11.90
2022-12-29T13:48:45.724Z,11.90
2022-12-29T13:55:34.436Z,11.90
2022-12-29T13:58:12.459Z,11.90
2022-12-29T14:00:53.255Z,11.90
2022-12-29T14:03:49.310Z,11.90
2022-12-29T14:06:26.176Z,11.90
2022-12-29T14:09:00.274Z,11.90
2022-12-29T14:11:34.109Z,11.90
2022-12-29T14:14:15.294Z,11.90
2022-12-29T14:16:45.758Z,11.90
2022-12-29T14:19:18.463Z,11.90
2022-12-29T14:21:55.386Z,11.80
2022-12-29T14:24:46.915Z,11.80
2022-12-29T14:27:55.553Z,11.70
2022-12-29T14:31:00.948Z,11.70
2022-12-29T14:33:33.927Z,11.70
2022-12-29T14:36:24.217Z,11.70
2022-12-29T14:38:52.983Z,11.60
2022-12-29T14:41:30.091Z,11.60
2022-12-29T14:44:05.311Z,11.60
2022-12-29T14:47:02.928Z,11.50
2022-12-29T14:49:35.759Z,11.50
2022-12-29T14:52:15.163Z,11.50
2022-12-29T14:54:52.514Z,11.40
2022-12-29T14:57:33.318Z,11.40
2022-12-29T15:00:10.272Z,11.40
2022-12-29T15:02:49.890Z,11.40
2022-12-29T15:05:34.692Z,11.40
2022-12-29T15:08:06.268Z,11.30
2022-12-29T15:10:43.680Z,11.30
2022-12-29T15:13:23.980Z,11.30
2022-12-29T15:15:55.393Z,11.30
2022-12-29T15:18:29.788Z,11.30
2022-12-29T15:21:04.589Z,11.30
2022-12-29T15:23:38.732Z,11.20
2022-12-29T15:26:09.677Z,11.20
2022-12-29T15:28:43.139Z,11.20
2022-12-29T15:31:15.447Z,11.20
2022-12-29T15:33:48.688Z,11.20
2022-12-29T15:36:27.928Z,11.20
2022-12-29T15:38:57.475Z,11.20
2022-12-29T15:41:56.336Z,11.10
2022-12-29T15:44:28.522Z,11.10
2022-12-29T15:46:57.903Z,11.00
2022-12-29T15:49:32.010Z,11.00
2022-12-29T15:52:02.779Z,11.00
2022-12-29T15:54:33.802Z,11.00
2022-12-29T15:57:02.434Z,10.90
2022-12-29T15:59:32.663Z,10.90
2022-12-29T16:02:08.755Z,10.80
2022-12-29T16:05:08.787Z,10.70
2022-12-29T16:07:40.774Z,10.60
2022-12-29T16:10:28.058Z,10.50
2022-12-29T16:12:57.053Z,10.40
2022-12-29T16:15:29.007Z,10.40
2022-12-29T16:18:00.699Z,10.40
2022-12-29T16:20:41.848Z,10.20
2022-12-29T16:23:24.056Z,10.20
2022-12-29T16:25:55.698Z,10.30
2022-12-29T16:28:27.373Z,10.30
2022-12-29T16:31:06.231Z,10.20
2022-12-29T16:33:48.733Z,10.20
2022-12-29T16:36:35.171Z,10.30
2022-12-29T16:39:29.392Z,10.30
2022-12-29T16:41:58.365Z,10.30
2022-12-29T16:44:30.257Z,10.40
2022-12-29T16:47:23.212Z,10.40
2022-12-29T16:49:55.426Z,10.50
2022-12-29T16:52:28.126Z,10.50
2022-12-29T16:55:01.371Z,10.50
2022-12-29T16:57:33.085Z,10.50
2022-12-29T17:00:04.194Z,10.60
2022-12-29T17:02:34.428Z,10.60
2022-12-29T17:05:03.174Z,10.60
2022-12-29T17:07:32.651Z,10.70
2022-12-29T17:10:02.658Z,10.70
2022-12-29T17:12:32.789Z,10.70
2022-12-29T17:15:03.347Z,10.70
2022-12-29T17:17:35.473Z,10.50
2022-12-29T17:20:07.248Z,10.10
2022-12-29T17:22:37.062Z,9.90
2022-12-29T17:25:07.839Z,9.80
2022-12-29T17:27:41.945Z,9.50
2022-12-29T17:30:15.829Z,9.00
2022-12-29T17:32:47.528Z,8.70
2022-12-29T17:35:29.070Z,8.50
2022-12-29T17:38:31.849Z,8.40
2022-12-29T17:41:43.159Z,8.30
2022-12-29T17:44:32.413Z,8.20
2022-12-29T17:47:01.700Z,8.10
2022-12-29T17:49:30.444Z,8.00
2022-12-29T17:51:59.588Z,7.90
2022-12-29T17:54:28.352Z,7.80
2022-12-29T17:56:58.793Z,7.80
2022-12-29T17:59:28.042Z,7.70
2022-12-29T18:01:56.562Z,7.70
2022-12-29T18:04:25.198Z,7.60
2022-12-29T18:06:54.179Z,7.60
2022-12-29T18:09:23.092Z,7.50
2022-12-29T18:11:51.790Z,7.50
2022-12-29T18:14:22.170Z,7.40
2022-12-29T18:16:50.606Z,7.40
2022-12-29T18:19:18.986Z,7.40
2022-12-29T18:21:47.430Z,7.40
2022-12-29T18:24:16.421Z,7.30
2022-12-29T18:26:45.475Z,7.30
2022-12-29T18:29:14.101Z,7.30
2022-12-29T18:31:44.430Z,7.30
2022-12-29T18:34:16.338Z,7.30
2022-12-29T18:36:45.130Z,7.40
2022-12-29T18:39:13.910Z,7.40
2022-12-29T18:41:45.889Z,7.40
2022-12-29T18:44:17.886Z,7.40
2022-12-29T18:47:00.259Z,7.40
2022-12-29T18:49:33.936Z,7.40
2022-12-29T18:55:11.699Z,7.30
2022-12-29T18:57:46.057Z,7.40
2022-12-29T19:00:22.825Z,7.40
2022-12-29T19:03:04.029Z,7.50
2022-12-29T19:05:38.641Z,7.60
2022-12-29T19:08:08.927Z,7.60
2022-12-29T19:10:42.286Z,7.60
2022-12-29T19:13:17.446Z,7.70
2022-12-29T19:15:50.314Z,7.70
2022-12-29T19:21:13.578Z,7.80
2022-12-29T19:23:42.321Z,7.90
2022-12-29T19:26:28.733Z,7.90
2022-12-29T19:29:01.483Z,7.90
2022-12-29T19:31:30.342Z,7.90
2022-12-29T19:34:01.889Z,7.90
2022-12-29T19:36:31.000Z,7.90
2022-12-29T19:39:00.113Z,7.90
2022-12-29T19:41:29.253Z,7.90
2022-12-29T19:43:58.146Z,7.90
2022-12-29T19:46:27.312Z,7.90
2022-12-29T19:48:59.190Z,7.90
2022-12-29T19:51:29.862Z,7.90
2022-12-29T19:53:59.901Z,7.90
2022-12-29T19:56:28.453Z,7.90
2022-12-29T19:58:58.215Z,8.00
2022-12-29T20:01:28.099Z,7.90
2022-12-29T20:03:57.268Z,7.90
2022-12-29T20:06:26.134Z,7.90
2022-12-29T20:08:57.221Z,7.90
2022-12-29T20:11:26.406Z,7.90
2022-12-29T20:13:55.100Z,8.00
2022-12-29T20:16:25.208Z,8.00
2022-12-29T20:18:56.244Z,8.00
2022-12-29T20:21:26.314Z,7.90
2022-12-29T20:23:58.806Z,7.90
2022-12-29T20:26:30.755Z,7.80
2022-12-29T20:29:00.302Z,7.80
2022-12-29T20:31:30.275Z,7.80
2022-12-29T20:33:59.150Z,7.80
2022-12-29T20:36:29.261Z,7.70
2022-12-29T20:39:01.607Z,7.80
2022-12-29T20:41:31.654Z,7.80
2022-12-29T20:44:00.821Z,7.80
2022-12-29T20:46:36.440Z,7.70
2022-12-29T20:49:08.408Z,7.80
2022-12-29T20:52:04.346Z,7.70
2022-12-29T20:54:26.857Z,7.80
2022-12-29T20:56:55.985Z,7.70
2022-12-29T20:59:27.701Z,7.70
2022-12-29T21:01:58.050Z,7.60
2022-12-29T21:04:27.068Z,7.60
2022-12-29T21:06:56.017Z,7.60
2022-12-29T21:09:25.480Z,7.60
2022-12-29T21:11:56.634Z,7.60
2022-12-29T21:14:25.988Z,7.60
2022-12-29T21:16:55.452Z,7.60
2022-12-29T21:19:25.484Z,7.60
2022-12-29T21:21:55.278Z,7.60
2022-12-29T21:24:24.795Z,7.50
2022-12-29T21:26:58.455Z,7.50
2022-12-29T21:29:27.494Z,7.40
2022-12-29T21:31:59.816Z,7.40
2022-12-29T21:34:33.306Z,7.40
2022-12-29T21:37:02.810Z,7.50
2022-12-29T21:39:31.614Z,7.50
2022-12-29T21:42:02.882Z,7.50
2022-12-29T21:44:48.735Z,7.50
2022-12-29T21:47:17.763Z,7.60
2022-12-29T21:49:46.769Z,7.60
2022-12-29T21:52:15.660Z,7.60
2022-12-29T21:55:04.177Z,7.60
2022-12-29T21:57:53.251Z,7.60
2022-12-29T22:00:39.421Z,7.50
2022-12-29T22:03:25.584Z,7.50
2022-12-29T22:06:11.814Z,7.50
2022-12-29T22:08:58.561Z,7.50
2022-12-29T22:11:44.661Z,7.50
2022-12-29T22:14:15.208Z,7.50
2022-12-29T22:16:44.168Z,7.50
2022-12-29T22:19:12.937Z,7.50
2022-12-29T22:21:42.095Z,7.50
2022-12-29T22:24:11.588Z,7.50
2022-12-29T22:26:40.724Z,7.50
2022-12-29T22:29:09.831Z,7.50
2022-12-29T22:31:40.857Z,7.50
2022-12-29T22:34:11.149Z,7.50
2022-12-29T22:36:40.184Z,7.60
2022-12-29T22:39:09.958Z,7.60
2022-12-29T22:41:39.200Z,7.60
2022-12-29T22:44:15.747Z,7.60
2022-12-29T22:46:46.216Z,7.50
2022-12-29T22:49:17.176Z,7.50
2022-12-29T22:51:45.894Z,7.50
2022-12-29T22:54:14.918Z,7.50
2022-12-29T22:56:43.815Z,7.50
2022-12-29T22:59:14.321Z,7.50
2022-12-29T23:01:45.170Z,7.40
2022-12-29T23:04:59.360Z,7.40
2022-12-29T23:07:04.739Z,7.30
2022-12-29T23:09:33.533Z,7.30
2022-12-29T23:12:02.736Z,7.30
2022-12-29T23:14:31.836Z,7.30
2022-12-29T23:17:02.411Z,7.40
2022-12-29T23:19:30.905Z,7.40
2022-12-29T23:21:59.355Z,7.30
2022-12-29T23:24:28.193Z,7.30
2022-12-29T23:26:57.426Z,7.30
2022-12-29T23:29:26.703Z,7.20
2022-12-29T23:31:56.329Z,7.30
2022-12-29T23:34:27.101Z,7.30
2022-12-29T23:36:56.025Z,7.20
2022-12-29T23:39:25.716Z,7.20
2022-12-29T23:41:54.661Z,7.40
2022-12-29T23:44:23.344Z,7.30
2022-12-29T23:46:51.977Z,7.30
2022-12-29T23:49:21.344Z,7.40
2022-12-29T23:51:51.535Z,7.50
2022-12-29T23:54:20.405Z,7.40
2022-12-29T23:56:49.264Z,7.50
2022-12-29T23:59:17.736Z,7.40
